Time;durP1;ratioP1;P1;durP2;ratioP2;P2;SDS_P1;SDS_P2;PMS_P1;PMS_P2;Temp;Humidity;BMP_temperature;BMP_pressure;BME280_temperature;BME280_humidity;BME280_pressure;Samples;Min_cycle;Max_cycle;Signal;HPM_P1;HPM_P2
2021/12/13 00:01:01;;;;;;;10.50;1.48;;;;;;;;;;4953040;28;20039;-65
2021/12/13 00:03:34;;;;;;;8.52;1.55;;;;;;;;;;4954091;29;20065;-66
2021/12/13 00:06:06;;;;;;;4.88;1.30;;;;;;;;;;4954001;28;20106;-66
2021/12/13 00:08:33;;;;;;;8.65;1.38;;;;;;;;;;4953970;28;20019;-66
2021/12/13 00:11:01;;;;;;;10.82;1.63;;;;;;;;;;4953809;29;20027;-65
2021/12/13 00:13:34;;;;;;;8.15;1.55;;;;;;;;;;4954062;29;20050;-64
2021/12/13 00:16:03;;;;;;;3.97;1.50;;;;;;;;;;4954244;28;20110;-64
2021/12/13 00:18:31;;;;;;;6.40;1.38;;;;;;;;;;4979331;28;20058;-64
2021/12/13 00:21:24;;;;;;;7.63;1.35;;;;;;;;;;5073819;28;20033;-64
2021/12/13 00:23:50;;;;;;;4.95;1.10;;;;;;;;;;5073504;28;20068;-64
2021/12/13 00:26:34;;;;;;;4.80;1.40;;;;;;;;;;5075035;28;20421;-65
2021/12/13 00:29:08;;;;;;;4.68;1.33;;;;;;;;;;5074566;28;20024;-64
2021/12/13 00:31:40;;;;;;;5.43;0.95;;;;;;;;;;5074735;28;20035;-64
2021/12/13 00:34:22;;;;;;;6.70;1.30;;;;;;;;;;5073449;28;20416;-64
2021/12/13 00:36:53;;;;;;;3.63;1.27;;;;;;;;;;5074727;28;20138;-65
2021/12/13 00:39:33;;;;;;;5.18;1.23;;;;;;;;;;5074445;28;20029;-64
2021/12/13 00:42:01;;;;;;;2.90;1.00;;;;;;;;;;5074507;28;20036;-65
2021/12/13 00:44:30;;;;;;;3.45;0.93;;;;;;;;;;4992961;28;20026;-64
2021/12/13 00:46:57;;;;;;;4.38;1.02;;;;;;;;;;4972206;28;20026;-64
2021/12/13 00:49:25;;;;;;;3.88;1.20;;;;;;;;;;4971382;28;20497;-67
2021/12/13 00:51:52;;;;;;;3.00;1.00;;;;;;;;;;4958668;28;20031;-65
2021/12/13 00:54:20;;;;;;;2.92;1.08;;;;;;;;;;4953158;29;20541;-63
2021/12/13 00:57:04;;;;;;;2.45;0.98;;;;;;;;;;4951879;28;20046;-65
2021/12/13 00:59:35;;;;;;;3.88;0.95;;;;;;;;;;4953234;29;20106;-65
2021/12/13 01:02:01;;;;;;;2.88;1.00;;;;;;;;;;4952642;28;20039;-64
2021/12/13 01:04:45;;;;;;;4.03;1.13;;;;;;;;;;4953117;29;20077;-64
2021/12/13 01:07:30;;;;;;;4.05;1.02;;;;;;;;;;4953097;28;20541;-63
2021/12/13 01:10:14;;;;;;;1.92;0.82;;;;;;;;;;4952828;29;20055;-64
2021/12/13 01:12:41;;;;;;;3.90;1.10;;;;;;;;;;4952692;29;20499;-64
2021/12/13 01:15:14;;;;;;;3.20;0.93;;;;;;;;;;4951615;28;20065;-65
2021/12/13 01:17:55;;;;;;;5.03;1.00;;;;;;;;;;4952848;28;20031;-66
2021/12/13 01:20:26;;;;;;;10.45;1.10;;;;;;;;;;5067189;28;20138;-64
2021/12/13 01:22:58;;;;;;;6.32;1.05;;;;;;;;;;5072389;28;20033;-65
2021/12/13 01:25:47;;;;;;;6.65;0.98;;;;;;;;;;5073336;28;20056;-65
2021/12/13 01:28:27;;;;;;;2.45;0.75;;;;;;;;;;5073289;28;20094;-64
2021/12/13 01:30:55;;;;;;;4.97;0.75;;;;;;;;;;5072178;28;20028;-66
2021/12/13 01:33:22;;;;;;;6.20;0.98;;;;;;;;;;5073161;28;20033;-64
2021/12/13 01:35:50;;;;;;;3.40;0.95;;;;;;;;;;5020408;28;20077;-64
2021/12/13 01:38:18;;;;;;;5.00;0.88;;;;;;;;;;4970496;28;20035;-65
2021/12/13 01:40:47;;;;;;;3.53;0.90;;;;;;;;;;4970609;28;20108;-65
2021/12/13 01:43:16;;;;;;;3.08;0.88;;;;;;;;;;4971579;28;20066;-65
2021/12/13 01:45:43;;;;;;;3.35;0.90;;;;;;;;;;4971702;28;20102;-64
2021/12/13 01:48:15;;;;;;;3.00;0.73;;;;;;;;;;4971733;28;20035;-65
2021/12/13 01:50:48;;;;;;;4.22;0.90;;;;;;;;;;4966849;28;20043;-64
2021/12/13 01:53:14;;;;;;;2.15;1.10;;;;;;;;;;4965666;28;20046;-65
2021/12/13 01:55:44;;;;;;;2.67;0.82;;;;;;;;;;4971840;28;20066;-65
2021/12/13 02:01:09;;;;;;;6.15;1.17;;;;;;;;;;4971963;28;20096;-67
2021/12/13 02:03:41;;;;;;;2.17;0.80;;;;;;;;;;4972116;28;20114;-64
2021/12/13 02:06:07;;;;;;;1.35;0.80;;;;;;;;;;4971482;28;20101;-64
2021/12/13 02:08:33;;;;;;;4.07;0.80;;;;;;;;;;4971601;28;20133;-64
2021/12/13 02:11:00;;;;;;;4.93;1.00;;;;;;;;;;4971017;28;20454;-65
2021/12/13 02:13:41;;;;;;;1.38;0.70;;;;;;;;;;5031114;28;20118;-65
2021/12/13 02:18:54;;;;;;;4.80;0.90;;;;;;;;;;5030404;28;20065;-69
2021/12/13 02:21:26;;;;;;;4.90;0.80;;;;;;;;;;4971195;28;20023;-64
2021/12/13 02:23:55;;;;;;;5.05;0.85;;;;;;;;;;4971395;28;20023;-68
2021/12/13 02:26:21;;;;;;;3.28;0.90;;;;;;;;;;4969973;28;20078;-65
2021/12/13 02:28:52;;;;;;;2.88;1.05;;;;;;;;;;4970437;28;20735;-67
2021/12/13 02:31:20;;;;;;;3.78;0.70;;;;;;;;;;4971090;28;20042;-65
2021/12/13 02:33:49;;;;;;;2.42;0.70;;;;;;;;;;4971136;28;20031;-66
2021/12/13 02:36:20;;;;;;;2.83;0.75;;;;;;;;;;4970996;28;20106;-65
2021/12/13 02:38:48;;;;;;;1.77;0.70;;;;;;;;;;4971055;28;20067;-64
2021/12/13 02:41:15;;;;;;;2.13;0.82;;;;;;;;;;4970975;28;20023;-65
2021/12/13 02:43:43;;;;;;;6.38;0.93;;;;;;;;;;4971054;28;20026;-64
2021/12/13 02:46:10;;;;;;;4.60;1.10;;;;;;;;;;4970750;28;20027;-65
2021/12/13 02:48:42;;;;;;;1.70;0.80;;;;;;;;;;4953679;28;20027;-64
2021/12/13 02:51:10;;;;;;;3.45;0.82;;;;;;;;;;4959903;28;20701;-65
2021/12/13 02:53:39;;;;;;;2.63;0.80;;;;;;;;;;4971247;28;20035;-63
2021/12/13 02:56:06;;;;;;;5.00;0.90;;;;;;;;;;4970955;28;20084;-64
2021/12/13 02:58:33;;;;;;;2.47;0.93;;;;;;;;;;4969420;28;20100;-64
2021/12/13 03:01:20;;;;;;;1.27;0.88;;;;;;;;;;4970544;28;20034;-64
2021/12/13 03:03:49;;;;;;;5.20;1.00;;;;;;;;;;4969573;28;20041;-63
2021/12/13 03:06:17;;;;;;;1.02;0.70;;;;;;;;;;4970852;28;20027;-64
2021/12/13 03:08:51;;;;;;;2.13;0.90;;;;;;;;;;4970749;28;20042;-67
2021/12/13 03:11:24;;;;;;;1.42;0.82;;;;;;;;;;4972570;28;20063;-63
2021/12/13 03:13:55;;;;;;;1.98;1.05;;;;;;;;;;4974297;28;20110;-64
2021/12/13 03:16:25;;;;;;;2.70;0.85;;;;;;;;;;4973900;28;20504;-64
2021/12/13 03:18:51;;;;;;;2.03;0.98;;;;;;;;;;4983263;28;20031;-66
2021/12/13 03:21:29;;;;;;;1.95;0.95;;;;;;;;;;4973794;28;20030;-64
2021/12/13 03:24:09;;;;;;;1.75;0.90;;;;;;;;;;4974083;28;20031;-65
2021/12/13 03:26:38;;;;;;;4.22;1.50;;;;;;;;;;4973863;28;20390;-63
2021/12/13 03:29:11;;;;;;;4.07;1.38;;;;;;;;;;4973898;28;20058;-64
2021/12/13 03:31:40;;;;;;;3.42;1.65;;;;;;;;;;4972451;28;20113;-64
2021/12/13 03:34:18;;;;;;;2.55;1.10;;;;;;;;;;4973637;28;20038;-64
2021/12/13 03:36:50;;;;;;;2.28;1.45;;;;;;;;;;4973545;28;20018;-64
2021/12/13 03:39:19;;;;;;;6.20;1.50;;;;;;;;;;4973782;28;20054;-65
2021/12/13 03:41:49;;;;;;;5.25;1.77;;;;;;;;;;4973782;28;20023;-67
2021/12/13 03:44:17;;;;;;;4.88;1.50;;;;;;;;;;4973673;28;20027;-66
2021/12/13 03:46:44;;;;;;;9.07;1.63;;;;;;;;;;4973653;28;20023;-65
2021/12/13 03:49:11;;;;;;;17.73;1.83;;;;;;;;;;4973537;28;20050;-67
2021/12/13 03:51:39;;;;;;;7.45;1.75;;;;;;;;;;4961544;28;20121;-64
2021/12/13 03:54:08;;;;;;;6.28;1.45;;;;;;;;;;4954110;28;20035;-65
2021/12/13 03:56:36;;;;;;;5.80;1.63;;;;;;;;;;4952983;28;20039;-64
2021/12/13 03:59:06;;;;;;;7.38;1.58;;;;;;;;;;4954209;28;20028;-64
2021/12/13 04:01:43;;;;;;;5.72;1.80;;;;;;;;;;4952762;28;20041;-64
2021/12/13 04:04:13;;;;;;;8.93;1.70;;;;;;;;;;4953098;28;20023;-63
2021/12/13 04:06:44;;;;;;;6.22;1.80;;;;;;;;;;4953599;28;20043;-64
2021/12/13 04:09:12;;;;;;;4.88;1.60;;;;;;;;;;4954048;28;20019;-65
2021/12/13 04:11:41;;;;;;;2.50;1.33;;;;;;;;;;4956096;28;20047;-66
2021/12/13 04:14:13;;;;;;;6.75;1.90;;;;;;;;;;4966388;28;20039;-65
2021/12/13 04:16:50;;;;;;;5.45;1.67;;;;;;;;;;4965823;28;20051;-65
2021/12/13 04:19:20;;;;;;;8.40;1.60;;;;;;;;;;4988369;28;20455;-66
2021/12/13 04:21:46;;;;;;;9.77;1.52;;;;;;;;;;4957121;28;20027;-66
2021/12/13 04:24:33;;;;;;;7.80;1.73;;;;;;;;;;4960425;28;20417;-65
2021/12/13 04:27:01;;;;;;;5.75;2.10;;;;;;;;;;4965836;28;20042;-63
2021/12/13 04:29:29;;;;;;;7.65;1.80;;;;;;;;;;4966654;28;20019;-65
2021/12/13 04:31:57;;;;;;;4.07;1.60;;;;;;;;;;4958927;28;20038;-68
2021/12/13 04:34:25;;;;;;;11.10;2.08;;;;;;;;;;4957625;28;20494;-68
2021/12/13 04:36:52;;;;;;;6.80;1.73;;;;;;;;;;4960497;28;20050;-68
2021/12/13 04:39:27;;;;;;;4.20;1.55;;;;;;;;;;4961071;28;20109;-68
2021/12/13 04:42:05;;;;;;;9.32;1.83;;;;;;;;;;4966062;28;20031;-69
2021/12/13 04:44:36;;;;;;;2.50;1.70;;;;;;;;;;4952638;28;20039;-65
2021/12/13 04:47:05;;;;;;;4.05;1.50;;;;;;;;;;4956357;28;20038;-65
2021/12/13 04:49:32;;;;;;;3.95;1.48;;;;;;;;;;4958250;28;20023;-66
2021/12/13 04:52:00;;;;;;;4.18;1.50;;;;;;;;;;4959832;28;20043;-64
2021/12/13 04:54:28;;;;;;;7.28;1.65;;;;;;;;;;4963856;28;20034;-64
2021/12/13 04:56:56;;;;;;;6.25;1.60;;;;;;;;;;4971195;28;20382;-66
2021/12/13 04:59:22;;;;;;;4.22;1.40;;;;;;;;;;4972625;28;20026;-65
2021/12/13 05:01:51;;;;;;;4.97;1.25;;;;;;;;;;4971938;28;20117;-66
2021/12/13 05:04:19;;;;;;;3.47;1.30;;;;;;;;;;4968475;28;20043;-65
2021/12/13 05:06:45;;;;;;;1.60;1.15;;;;;;;;;;4953421;28;20110;-64
2021/12/13 05:09:13;;;;;;;3.95;1.30;;;;;;;;;;4953479;28;20118;-65
2021/12/13 05:11:41;;;;;;;3.28;1.58;;;;;;;;;;4959112;28;20575;-65
2021/12/13 05:14:07;;;;;;;2.75;1.30;;;;;;;;;;5018248;28;20042;-66
2021/12/13 05:16:43;;;;;;;9.52;1.65;;;;;;;;;;4952769;29;20495;-66
2021/12/13 05:19:10;;;;;;;6.22;1.35;;;;;;;;;;5001405;28;20394;-66
2021/12/13 05:21:46;;;;;;;2.00;1.27;;;;;;;;;;4959867;28;20126;-68
2021/12/13 05:24:21;;;;;;;3.75;1.50;;;;;;;;;;5027978;28;20025;-67
2021/12/13 05:26:58;;;;;;;2.70;1.27;;;;;;;;;;5072903;28;20033;-65
2021/12/13 05:29:35;;;;;;;4.70;1.30;;;;;;;;;;4972059;28;20528;-65
2021/12/13 05:32:10;;;;;;;1.35;1.08;;;;;;;;;;4952071;28;20513;-65
2021/12/13 05:34:41;;;;;;;6.10;1.10;;;;;;;;;;4954665;28;20039;-64
2021/12/13 05:37:09;;;;;;;2.35;1.20;;;;;;;;;;5025584;28;20052;-65
2021/12/13 05:39:36;;;;;;;5.40;1.20;;;;;;;;;;5072957;28;20025;-66
2021/12/13 05:42:12;;;;;;;3.35;1.17;;;;;;;;;;4992033;28;20035;-64
2021/12/13 05:44:43;;;;;;;2.95;1.30;;;;;;;;;;4959872;28;20034;-66
2021/12/13 05:47:17;;;;;;;4.53;1.33;;;;;;;;;;4962537;28;20035;-65
2021/12/13 05:49:47;;;;;;;2.42;1.10;;;;;;;;;;4960668;28;20334;-66
2021/12/13 05:52:24;;;;;;;2.55;1.00;;;;;;;;;;4962183;28;20031;-66
2021/12/13 05:54:57;;;;;;;9.68;1.77;;;;;;;;;;4986222;28;20101;-66
2021/12/13 05:57:25;;;;;;;7.13;1.33;;;;;;;;;;4963071;28;20433;-66
2021/12/13 05:59:51;;;;;;;7.13;1.30;;;;;;;;;;4962109;28;20034;-66
2021/12/13 06:02:39;;;;;;;7.95;1.30;;;;;;;;;;4960253;28;20027;-67
2021/12/13 06:05:07;;;;;;;9.20;1.52;;;;;;;;;;4959400;28;20028;-68
2021/12/13 06:07:37;;;;;;;18.65;1.75;;;;;;;;;;4959911;28;20045;-67
2021/12/13 06:10:08;;;;;;;8.68;1.13;;;;;;;;;;4956759;28;20033;-67
2021/12/13 06:12:43;;;;;;;5.32;1.50;;;;;;;;;;4989025;28;20052;-71
2021/12/13 06:15:12;;;;;;;6.05;1.38;;;;;;;;;;4961561;28;20085;-66
2021/12/13 06:17:41;;;;;;;4.55;1.38;;;;;;;;;;4960952;28;20027;-68
2021/12/13 06:20:10;;;;;;;8.27;1.55;;;;;;;;;;4964538;28;20027;-67
2021/12/13 06:22:36;;;;;;;11.77;1.52;;;;;;;;;;4963065;28;20065;-67
2021/12/13 06:25:02;;;;;;;2.92;1.33;;;;;;;;;;4964981;28;20030;-67
2021/12/13 06:27:30;;;;;;;7.20;1.38;;;;;;;;;;4989719;28;20020;-68
2021/12/13 06:29:58;;;;;;;1.80;1.27;;;;;;;;;;4960231;28;20035;-67
2021/12/13 06:32:29;;;;;;;6.13;1.75;;;;;;;;;;4962203;28;20047;-68
2021/12/13 06:34:57;;;;;;;4.30;1.40;;;;;;;;;;4962414;28;20032;-68
2021/12/13 06:37:34;;;;;;;4.95;2.28;;;;;;;;;;4961638;28;20068;-68
2021/12/13 06:40:11;;;;;;;5.13;1.40;;;;;;;;;;4956711;28;20082;-69
2021/12/13 06:42:37;;;;;;;4.32;1.30;;;;;;;;;;4958441;28;20023;-70
2021/12/13 06:45:03;;;;;;;5.90;1.50;;;;;;;;;;4973074;28;20030;-73
2021/12/13 06:47:29;;;;;;;7.35;1.38;;;;;;;;;;4968604;28;20069;-71
2021/12/13 06:49:57;;;;;;;9.63;1.90;;;;;;;;;;4956731;28;20498;-67
2021/12/13 06:52:23;;;;;;;14.23;1.60;;;;;;;;;;4961559;28;20102;-66
2021/12/13 06:54:54;;;;;;;33.72;1.73;;;;;;;;;;4965889;28;20045;-68
2021/12/13 06:57:23;;;;;;;15.80;1.50;;;;;;;;;;4962930;28;20023;-67
2021/12/13 06:59:54;;;;;;;26.35;2.03;;;;;;;;;;4961882;28;20054;-67
2021/12/13 07:02:22;;;;;;;4.53;1.63;;;;;;;;;;4965360;28;20031;-67
2021/12/13 07:04:50;;;;;;;13.52;2.22;;;;;;;;;;4963295;28;20379;-65
2021/12/13 07:07:16;;;;;;;8.65;1.50;;;;;;;;;;4962542;28;20020;-67
2021/12/13 07:09:49;;;;;;;7.90;1.52;;;;;;;;;;4961149;28;20027;-69
2021/12/13 07:12:16;;;;;;;3.90;1.27;;;;;;;;;;4960596;28;20542;-74
2021/12/13 07:14:42;;;;;;;6.05;1.52;;;;;;;;;;4956991;28;20047;-79
2021/12/13 07:17:33;;;;;;;9.45;1.52;;;;;;;;;;4956214;28;20081;-67
2021/12/13 07:20:00;;;;;;;26.20;2.28;;;;;;;;;;4964498;28;20467;-73
2021/12/13 07:22:27;;;;;;;20.55;1.80;;;;;;;;;;4955423;28;20098;-71
2021/12/13 07:25:01;;;;;;;12.73;1.83;;;;;;;;;;4955195;28;20023;-71
2021/12/13 07:27:33;;;;;;;4.30;1.48;;;;;;;;;;4954886;29;20050;-71
2021/12/13 07:30:19;;;;;;;20.42;1.73;;;;;;;;;;4954966;29;20030;-71
2021/12/13 07:32:57;;;;;;;13.70;1.85;;;;;;;;;;4969065;28;20044;-72
2021/12/13 07:35:35;;;;;;;5.53;1.60;;;;;;;;;;4954989;29;20042;-72
2021/12/13 07:38:01;;;;;;;9.93;1.55;;;;;;;;;;4954868;29;20031;-71
2021/12/13 07:40:36;;;;;;;7.43;1.58;;;;;;;;;;4956031;28;20387;-70
2021/12/13 07:43:05;;;;;;;3.75;1.70;;;;;;;;;;4962074;28;20022;-71
2021/12/13 07:45:50;;;;;;;3.47;1.55;;;;;;;;;;4960276;28;20047;-66
2021/12/13 07:48:18;;;;;;;5.22;1.77;;;;;;;;;;4969976;28;20085;-67
2021/12/13 07:50:45;;;;;;;6.18;1.60;;;;;;;;;;4966085;28;20100;-67
2021/12/13 07:53:17;;;;;;;2.40;1.50;;;;;;;;;;4954289;28;20501;-66
2021/12/13 07:55:47;;;;;;;1.70;1.30;;;;;;;;;;4965857;28;20110;-67
2021/12/13 07:58:15;;;;;;;3.60;1.48;;;;;;;;;;4958712;28;20026;-66
2021/12/13 08:00:41;;;;;;;4.50;1.50;;;;;;;;;;4964149;28;20118;-67
2021/12/13 08:03:09;;;;;;;7.53;1.60;;;;;;;;;;4963990;28;20027;-66
2021/12/13 08:05:47;;;;;;;13.57;1.80;;;;;;;;;;4960400;28;20030;-65
2021/12/13 08:08:22;;;;;;;2.13;1.33;;;;;;;;;;4961058;28;20443;-66
2021/12/13 08:10:51;;;;;;;6.38;1.40;;;;;;;;;;4962861;28;20470;-65
2021/12/13 08:13:22;;;;;;;7.57;1.58;;;;;;;;;;5009471;28;20049;-66
2021/12/13 08:15:54;;;;;;;9.27;1.42;;;;;;;;;;4965400;28;20019;-68
2021/12/13 08:18:24;;;;;;;4.93;1.60;;;;;;;;;;4981802;28;20064;-70
2021/12/13 08:20:56;;;;;;;2.30;1.75;;;;;;;;;;4973638;28;20517;-70
2021/12/13 08:23:35;;;;;;;2.20;1.50;;;;;;;;;;4965183;28;20496;-70
2021/12/13 08:26:04;;;;;;;4.30;1.67;;;;;;;;;;4968320;28;20022;-70
2021/12/13 08:28:36;;;;;;;4.13;1.60;;;;;;;;;;4965251;28;20493;-71
2021/12/13 08:31:02;;;;;;;6.18;1.50;;;;;;;;;;4961571;28;20471;-72
2021/12/13 08:33:45;;;;;;;2.60;1.40;;;;;;;;;;4963562;28;20391;-69
2021/12/13 08:36:29;;;;;;;3.28;1.60;;;;;;;;;;4964557;28;20530;-72
2021/12/13 08:39:10;;;;;;;4.00;1.48;;;;;;;;;;4958834;28;20420;-73
2021/12/13 08:41:36;;;;;;;2.85;1.60;;;;;;;;;;4964280;28;20023;-71
2021/12/13 08:44:16;;;;;;;3.63;1.30;;;;;;;;;;4965867;28;20027;-70
2021/12/13 08:46:42;;;;;;;2.53;1.20;;;;;;;;;;4962801;28;20022;-71
2021/12/13 08:49:17;;;;;;;2.03;1.40;;;;;;;;;;4958071;28;20049;-71
2021/12/13 08:51:52;;;;;;;2.47;1.65;;;;;;;;;;4966948;28;20058;-69
2021/12/13 08:54:19;;;;;;;2.63;1.50;;;;;;;;;;4962366;28;20046;-70
2021/12/13 08:56:47;;;;;;;2.08;1.42;;;;;;;;;;4963602;28;20104;-70
2021/12/13 08:59:39;;;;;;;2.70;1.63;;;;;;;;;;4963989;28;20757;-71
2021/12/13 09:02:08;;;;;;;2.38;1.63;;;;;;;;;;4965959;28;20047;-71
2021/12/13 09:04:37;;;;;;;2.65;1.35;;;;;;;;;;4967617;28;20027;-70
2021/12/13 09:07:05;;;;;;;2.22;1.50;;;;;;;;;;4962145;28;20435;-69
2021/12/13 09:09:33;;;;;;;2.05;1.67;;;;;;;;;;4961850;28;20018;-70
2021/12/13 09:12:05;;;;;;;2.17;1.58;;;;;;;;;;4971663;28;20141;-70
2021/12/13 09:14:43;;;;;;;2.10;1.63;;;;;;;;;;4966521;28;20023;-72
2021/12/13 09:17:25;;;;;;;2.88;1.80;;;;;;;;;;4956601;28;20023;-70
2021/12/13 09:19:56;;;;;;;3.42;1.60;;;;;;;;;;4958998;28;20023;-71
2021/12/13 09:22:31;;;;;;;2.03;1.63;;;;;;;;;;4964928;28;20497;-72
2021/12/13 09:25:01;;;;;;;3.08;1.77;;;;;;;;;;4960700;28;20487;-71
2021/12/13 09:27:48;;;;;;;2.30;1.60;;;;;;;;;;4969564;28;20114;-70
2021/12/13 09:30:14;;;;;;;4.03;1.75;;;;;;;;;;4966999;28;20019;-70
2021/12/13 09:32:47;;;;;;;2.95;1.48;;;;;;;;;;4958689;28;20471;-71
2021/12/13 09:35:28;;;;;;;1.88;1.48;;;;;;;;;;4952318;28;20076;-70
2021/12/13 09:37:55;;;;;;;4.95;1.75;;;;;;;;;;4967503;28;20363;-71
2021/12/13 09:40:31;;;;;;;2.42;1.70;;;;;;;;;;4969141;28;20042;-71
2021/12/13 09:42:58;;;;;;;3.22;1.80;;;;;;;;;;4969779;28;20533;-70
2021/12/13 09:45:36;;;;;;;2.75;1.83;;;;;;;;;;4972686;28;20111;-72
2021/12/13 09:48:22;;;;;;;2.83;1.77;;;;;;;;;;4966184;28;20019;-68
2021/12/13 09:50:51;;;;;;;3.10;1.88;;;;;;;;;;4970540;28;20030;-70
2021/12/13 09:53:17;;;;;;;3.33;1.83;;;;;;;;;;4963738;28;20164;-71
2021/12/13 09:55:47;;;;;;;2.78;1.70;;;;;;;;;;4964419;28;20022;-71
2021/12/13 09:58:33;;;;;;;2.72;1.98;;;;;;;;;;4972042;28;20463;-70
2021/12/13 10:01:20;;;;;;;3.03;1.58;;;;;;;;;;4962061;28;20027;-68
2021/12/13 10:03:53;;;;;;;2.53;1.77;;;;;;;;;;4971445;28;20031;-71
2021/12/13 10:06:22;;;;;;;3.00;2.10;;;;;;;;;;4958240;28;20039;-69
2021/12/13 10:08:50;;;;;;;6.97;2.05;;;;;;;;;;4967420;28;20034;-69
2021/12/13 10:11:23;;;;;;;2.10;1.83;;;;;;;;;;4960970;28;20825;-67
2021/12/13 10:13:50;;;;;;;2.78;1.80;;;;;;;;;;5017302;28;20043;-67
2021/12/13 10:16:22;;;;;;;2.90;1.75;;;;;;;;;;4962343;28;20022;-70
2021/12/13 10:18:49;;;;;;;3.58;2.00;;;;;;;;;;4992807;28;20023;-68
2021/12/13 10:21:21;;;;;;;2.97;1.80;;;;;;;;;;4967607;28;20035;-70
2021/12/13 10:23:51;;;;;;;3.13;1.83;;;;;;;;;;4970416;28;20110;-69
2021/12/13 10:26:19;;;;;;;4.72;1.90;;;;;;;;;;4964515;28;20024;-69
2021/12/13 10:28:56;;;;;;;4.28;1.63;;;;;;;;;;4969435;28;20027;-69
2021/12/13 10:31:42;;;;;;;5.20;2.05;;;;;;;;;;4970550;28;20084;-70
2021/12/13 10:34:11;;;;;;;4.07;1.95;;;;;;;;;;4952051;28;20043;-70
2021/12/13 10:36:39;;;;;;;3.17;2.20;;;;;;;;;;4953297;28;20031;-67
2021/12/13 10:39:16;;;;;;;3.88;2.10;;;;;;;;;;4952000;28;20472;-70
2021/12/13 10:41:43;;;;;;;2.05;1.73;;;;;;;;;;4952481;29;20023;-70
2021/12/13 10:44:13;;;;;;;3.42;1.98;;;;;;;;;;4952347;29;20228;-71
2021/12/13 10:46:42;;;;;;;5.18;2.10;;;;;;;;;;4956114;28;20031;-71
2021/12/13 10:49:11;;;;;;;3.58;2.15;;;;;;;;;;4960065;28;20638;-71
2021/12/13 10:51:39;;;;;;;2.92;2.15;;;;;;;;;;4959967;28;20031;-71
2021/12/13 10:54:16;;;;;;;4.40;2.10;;;;;;;;;;4951937;29;20035;-70
2021/12/13 10:56:54;;;;;;;2.63;2.15;;;;;;;;;;4953366;28;20087;-70
2021/12/13 10:59:21;;;;;;;3.38;2.10;;;;;;;;;;4969883;28;20239;-71
2021/12/13 11:01:53;;;;;;;3.17;2.20;;;;;;;;;;4952270;28;20027;-69
2021/12/13 11:04:22;;;;;;;3.13;2.65;;;;;;;;;;4957252;28;20689;-70
2021/12/13 11:06:48;;;;;;;5.63;2.47;;;;;;;;;;4955629;28;20030;-72
2021/12/13 11:09:19;;;;;;;5.22;2.53;;;;;;;;;;4960305;28;20031;-78
2021/12/13 11:11:50;;;;;;;4.45;2.50;;;;;;;;;;4951542;29;20102;-70
2021/12/13 11:14:20;;;;;;;3.65;2.40;;;;;;;;;;5065124;28;20029;-70
2021/12/13 11:16:55;;;;;;;5.90;2.40;;;;;;;;;;5072541;28;20036;-69
2021/12/13 11:19:23;;;;;;;7.00;2.00;;;;;;;;;;5048988;28;20029;-70
2021/12/13 11:21:52;;;;;;;7.38;2.30;;;;;;;;;;5072940;28;20020;-70
2021/12/13 11:24:20;;;;;;;4.40;2.63;;;;;;;;;;5071242;28;20027;-70
2021/12/13 11:26:49;;;;;;;4.50;2.42;;;;;;;;;;5072625;28;20453;-71
2021/12/13 11:29:15;;;;;;;6.10;2.50;;;;;;;;;;5072693;28;20476;-72
2021/12/13 11:32:05;;;;;;;6.57;2.28;;;;;;;;;;5074040;28;20118;-70
2021/12/13 11:34:34;;;;;;;3.55;2.40;;;;;;;;;;5074516;28;20029;-72
2021/12/13 11:37:01;;;;;;;4.07;2.35;;;;;;;;;;5027973;28;20042;-72
2021/12/13 11:39:29;;;;;;;3.95;2.67;;;;;;;;;;4973688;28;20023;-71
2021/12/13 11:42:14;;;;;;;6.78;2.40;;;;;;;;;;4973824;28;20122;-71
2021/12/13 11:45:03;;;;;;;4.90;2.40;;;;;;;;;;4972493;28;20023;-71
2021/12/13 11:47:37;;;;;;;4.35;2.45;;;;;;;;;;4968037;28;20037;-71
2021/12/13 11:50:22;;;;;;;5.43;2.30;;;;;;;;;;4967307;28;20086;-70
2021/12/13 11:53:07;;;;;;;9.10;2.70;;;;;;;;;;4970442;28;20180;-70
2021/12/13 11:55:43;;;;;;;10.57;2.20;;;;;;;;;;4960178;28;20011;-71
2021/12/13 11:58:27;;;;;;;5.93;2.60;;;;;;;;;;4970663;28;20027;-71
2021/12/13 12:01:12;;;;;;;5.32;2.65;;;;;;;;;;4958885;28;20019;-69
2021/12/13 12:03:57;;;;;;;6.80;2.75;;;;;;;;;;4953214;28;20029;-72
2021/12/13 12:06:29;;;;;;;7.70;2.90;;;;;;;;;;4954381;28;20031;-71
2021/12/13 12:09:14;;;;;;;4.03;2.80;;;;;;;;;;4953049;28;20038;-72
2021/12/13 12:11:43;;;;;;;6.20;2.50;;;;;;;;;;4958857;28;20387;-70
2021/12/13 12:14:11;;;;;;;5.60;3.28;;;;;;;;;;4973363;28;20035;-71
2021/12/13 12:16:37;;;;;;;3.75;2.63;;;;;;;;;;4973800;28;20042;-74
2021/12/13 12:19:04;;;;;;;4.28;2.90;;;;;;;;;;4974282;28;20429;-72
2021/12/13 12:21:33;;;;;;;4.50;2.70;;;;;;;;;;4965182;28;20074;-72
2021/12/13 12:24:01;;;;;;;7.38;3.10;;;;;;;;;;4960207;28;20102;-73
2021/12/13 12:26:29;;;;;;;5.82;3.53;;;;;;;;;;4968101;28;20095;-73
2021/12/13 12:28:58;;;;;;;3.40;2.63;;;;;;;;;;5058338;28;20092;-73
2021/12/13 12:31:29;;;;;;;6.78;2.78;;;;;;;;;;4999228;28;20489;-74
2021/12/13 12:33:57;;;;;;;4.38;3.00;;;;;;;;;;4969051;28;20069;-73
2021/12/13 12:36:25;;;;;;;4.32;2.83;;;;;;;;;;4963031;28;20056;-71
2021/12/13 12:39:11;;;;;;;4.47;3.00;;;;;;;;;;4963373;28;20024;-71
2021/12/13 12:41:44;;;;;;;4.65;3.13;;;;;;;;;;4955836;28;20027;-71
2021/12/13 12:44:15;;;;;;;7.88;3.00;;;;;;;;;;4957648;28;20074;-71
2021/12/13 12:46:42;;;;;;;4.30;3.20;;;;;;;;;;4966823;28;20535;-73
2021/12/13 12:49:13;;;;;;;3.65;2.63;;;;;;;;;;4959538;28;20486;-71
2021/12/13 12:51:39;;;;;;;6.05;3.20;;;;;;;;;;4959406;28;20027;-71
2021/12/13 12:54:07;;;;;;;5.13;2.75;;;;;;;;;;4958187;28;20038;-70
2021/12/13 12:56:40;;;;;;;7.13;2.83;;;;;;;;;;4973444;28;20031;-72
2021/12/13 12:59:10;;;;;;;3.22;2.67;;;;;;;;;;4959331;28;20065;-73
2021/12/13 13:01:36;;;;;;;5.38;2.97;;;;;;;;;;4954114;29;20514;-72
2021/12/13 13:04:07;;;;;;;3.83;2.90;;;;;;;;;;4965853;28;20383;-72
2021/12/13 13:06:33;;;;;;;5.35;2.63;;;;;;;;;;4969369;28;20023;-70
2021/12/13 13:08:59;;;;;;;4.30;2.80;;;;;;;;;;4966609;28;20023;-70
2021/12/13 13:11:29;;;;;;;4.88;3.00;;;;;;;;;;4956302;28;20126;-70
2021/12/13 13:14:00;;;;;;;5.32;3.42;;;;;;;;;;4953603;29;20055;-71
2021/12/13 13:16:28;;;;;;;4.15;2.85;;;;;;;;;;4968092;28;20040;-70
2021/12/13 13:18:55;;;;;;;4.20;3.15;;;;;;;;;;4972461;28;20035;-71
2021/12/13 13:21:22;;;;;;;4.93;2.80;;;;;;;;;;4970939;28;20461;-70
2021/12/13 13:23:50;;;;;;;3.60;2.83;;;;;;;;;;4972688;28;20023;-71
2021/12/13 13:26:17;;;;;;;6.20;2.67;;;;;;;;;;4972606;28;20049;-70
2021/12/13 13:28:45;;;;;;;5.50;3.20;;;;;;;;;;4972706;28;20018;-70
2021/12/13 13:31:14;;;;;;;5.18;2.63;;;;;;;;;;4972706;28;20041;-71
2021/12/13 13:33:46;;;;;;;4.57;2.60;;;;;;;;;;4971833;28;20145;-72
2021/12/13 13:36:17;;;;;;;3.35;2.50;;;;;;;;;;4971826;28;20091;-70
2021/12/13 13:38:43;;;;;;;3.75;2.53;;;;;;;;;;4962762;28;20458;-71
2021/12/13 13:41:12;;;;;;;7.60;2.50;;;;;;;;;;4965832;28;20027;-70
2021/12/13 13:43:39;;;;;;;4.85;2.70;;;;;;;;;;4969635;28;20046;-70
2021/12/13 13:46:06;;;;;;;5.03;2.78;;;;;;;;;;4953178;28;20387;-70
2021/12/13 13:48:34;;;;;;;3.80;2.92;;;;;;;;;;4961905;28;20034;-66
2021/12/13 13:51:06;;;;;;;4.68;2.80;;;;;;;;;;4967161;28;20112;-68
2021/12/13 13:53:39;;;;;;;4.82;2.90;;;;;;;;;;4965209;28;20035;-70
2021/12/13 13:56:09;;;;;;;3.55;2.85;;;;;;;;;;4959795;28;20030;-68
2021/12/13 13:58:41;;;;;;;3.03;2.40;;;;;;;;;;4965284;28;20502;-65
2021/12/13 14:01:22;;;;;;;5.40;2.78;;;;;;;;;;4970031;28;20027;-72
2021/12/13 14:03:52;;;;;;;3.35;2.40;;;;;;;;;;4964889;28;20121;-69
2021/12/13 14:06:20;;;;;;;3.42;2.55;;;;;;;;;;4960771;28;20023;-70
2021/12/13 14:08:56;;;;;;;3.58;2.63;;;;;;;;;;4960639;28;20022;-72
2021/12/13 14:11:24;;;;;;;4.57;2.50;;;;;;;;;;5017735;28;20467;-68
2021/12/13 14:13:50;;;;;;;3.80;2.65;;;;;;;;;;5025891;28;20050;-72
2021/12/13 14:16:19;;;;;;;2.95;2.38;;;;;;;;;;5002459;28;20137;-68
2021/12/13 14:18:45;;;;;;;5.57;3.00;;;;;;;;;;5004520;28;20027;-68
2021/12/13 14:21:13;;;;;;;4.35;2.42;;;;;;;;;;4992033;28;20049;-71
2021/12/13 14:23:42;;;;;;;3.00;2.40;;;;;;;;;;4986824;28;20019;-71
2021/12/13 14:26:09;;;;;;;3.50;2.42;;;;;;;;;;5014535;28;20056;-72
2021/12/13 14:28:59;;;;;;;6.35;3.03;;;;;;;;;;5006013;28;20030;-71
2021/12/13 14:31:29;;;;;;;6.60;3.05;;;;;;;;;;5009957;28;20426;-72
2021/12/13 14:34:04;;;;;;;3.63;2.58;;;;;;;;;;5016804;28;20040;-71
2021/12/13 14:36:32;;;;;;;4.20;2.92;;;;;;;;;;5017702;28;20118;-70
2021/12/13 14:39:07;;;;;;;4.15;2.92;;;;;;;;;;5017221;28;20032;-72
2021/12/13 14:41:35;;;;;;;3.90;2.67;;;;;;;;;;5023120;28;20128;-71
2021/12/13 14:44:03;;;;;;;3.78;2.67;;;;;;;;;;5029397;28;20021;-72
2021/12/13 14:46:31;;;;;;;5.15;2.92;;;;;;;;;;5042494;28;20129;-73
2021/12/13 14:49:03;;;;;;;3.33;2.65;;;;;;;;;;5008333;28;20182;-72
2021/12/13 14:51:29;;;;;;;3.80;2.30;;;;;;;;;;5014015;28;20031;-74
2021/12/13 14:53:59;;;;;;;3.35;2.58;;;;;;;;;;5024597;28;20338;-75
2021/12/13 14:56:25;;;;;;;3.50;2.42;;;;;;;;;;4999722;28;20029;-74
2021/12/13 14:58:56;;;;;;;8.98;3.05;;;;;;;;;;5009723;28;20032;-72
2021/12/13 15:01:25;;;;;;;5.00;3.10;;;;;;;;;;4999132;28;20027;-75
2021/12/13 15:03:58;;;;;;;4.57;2.85;;;;;;;;;;5007530;28;20472;-68
2021/12/13 15:06:25;;;;;;;5.68;2.90;;;;;;;;;;5005827;28;20114;-69
2021/12/13 15:08:53;;;;;;;3.80;2.70;;;;;;;;;;5017745;28;20425;-69
2021/12/13 15:11:28;;;;;;;4.68;2.67;;;;;;;;;;5012054;28;20441;-67
2021/12/13 15:14:05;;;;;;;5.35;2.88;;;;;;;;;;4971813;28;20540;-71